Terminal Aerodrome Forecast
Issued by NWS

Home | Current Version | Previous Version | Text Only | Print | Product List | Glossary On
Versions: 1 2 3 4 5 6 7 8 9 10 11 12 13 14 15 16 17 18 19
366
FTUS43 KBIS 231728
TAFMOT
TAF
KMOT 231728Z 2318/2418 30025G36KT P6SM SCT035 BKN060 WS020/32030KT
     FM240200 31020G31KT P6SM SCT040 WS020/34035KT
     FM240600 30016KT P6SM SKC WS020/34035KT
     FM240800 30015KT P6SM SKC
     FM241500 30009KT P6SM FEW080 FEW250=

USA.gov is the U.S. government's official web portal to all federal, state and local government web resources and services.